createdAt,value
2023-01-07T00:07:06.450Z,8.90
2023-01-07T00:17:09.082Z,6.20
2023-01-07T00:27:11.851Z,4.90
2023-01-07T00:37:33.009Z,11.60
2023-01-07T00:47:35.505Z,6.70
2023-01-07T00:57:37.994Z,5.90
2023-01-07T01:07:41.368Z,7.80
2023-01-07T01:17:44.054Z,6.20
2023-01-07T01:27:46.562Z,7.40
2023-01-07T01:37:48.805Z,6.80
2023-01-07T01:48:07.153Z,6.50
2023-01-07T01:58:19.214Z,5.60
2023-01-07T02:08:22.988Z,6.30
2023-01-07T02:19:17.118Z,7.80
2023-01-07T02:29:42.521Z,6.10
2023-01-07T02:40:05.715Z,9.30
2023-01-07T02:50:09.570Z,7.50
2023-01-07T03:00:16.230Z,9.70
2023-01-07T03:10:43.605Z,9.20
2023-01-07T03:20:51.814Z,9.00
2023-01-07T03:30:58.407Z,10.60
2023-01-07T03:41:01.263Z,8.70
2023-01-07T03:51:04.392Z,7.50
2023-01-07T04:01:07.140Z,7.70
2023-01-07T04:11:09.709Z,7.20
2023-01-07T04:21:12.884Z,7.50
2023-01-07T04:31:16.704Z,8.00
2023-01-07T04:41:19.115Z,6.40
2023-01-07T04:51:21.623Z,8.80
2023-01-07T05:01:25.171Z,10.30
2023-01-07T05:11:27.953Z,12.40
2023-01-07T05:21:31.343Z,7.90
2023-01-07T05:31:34.301Z,9.80
2023-01-07T05:41:37.099Z,11.90
2023-01-07T05:51:40.279Z,12.70
2023-01-07T06:01:42.585Z,8.90
2023-01-07T06:11:44.928Z,10.10
2023-01-07T06:21:47.290Z,10.30
2023-01-07T06:31:49.899Z,10.70
2023-01-07T06:41:52.398Z,15.20
2023-01-07T06:51:54.810Z,17.60
2023-01-07T07:01:57.390Z,17.50
2023-01-07T07:11:59.781Z,18.40
2023-01-07T07:22:03.999Z,15.50
2023-01-07T07:32:07.375Z,15.40
2023-01-07T07:42:11.552Z,16.10
2023-01-07T07:52:13.955Z,15.10
2023-01-07T08:02:16.286Z,17.50
2023-01-07T08:12:18.763Z,28.90
2023-01-07T08:22:21.329Z,39.80
2023-01-07T08:32:24.126Z,31.90
2023-01-07T08:42:26.773Z,45.70
2023-01-07T08:52:29.761Z,29.60
2023-01-07T09:02:33.245Z,28.70
2023-01-07T09:12:36.385Z,28.20
2023-01-07T09:22:39.455Z,22.00
2023-01-07T09:32:43.413Z,19.80
2023-01-07T09:43:09.170Z,11.50
2023-01-07T09:53:37.907Z,18.00
2023-01-07T10:03:59.128Z,24.40
2023-01-07T10:14:07.590Z,8.40
2023-01-07T10:24:23.143Z,16.50
2023-01-07T10:34:31.026Z,8.30
2023-01-07T10:44:40.530Z,13.70
2023-01-07T10:55:21.248Z,10.00
2023-01-07T11:05:32.981Z,10.80
2023-01-07T11:15:51.515Z,10.80
2023-01-07T11:25:55.278Z,13.40
2023-01-07T11:35:57.809Z,12.80
2023-01-07T11:46:19.344Z,14.70
2023-01-07T11:56:30.347Z,15.50
2023-01-07T12:06:37.980Z,17.20
2023-01-07T12:16:41.252Z,16.80
2023-01-07T12:26:59.644Z,8.70
2023-01-07T12:37:10.464Z,9.50
2023-01-07T12:47:50.180Z,20.20
2023-01-07T12:58:02.929Z,16.40
2023-01-07T13:08:33.336Z,16.60
2023-01-07T13:18:36.006Z,9.40
2023-01-07T13:29:02.887Z,5.20
2023-01-07T13:39:34.815Z,10.30
2023-01-07T13:49:37.778Z,11.30
2023-01-07T13:59:54.215Z,8.80
2023-01-07T14:09:58.004Z,28.20
2023-01-07T14:20:30.316Z,22.00
2023-01-07T14:30:42.804Z,15.80
2023-01-07T14:40:45.212Z,7.30
2023-01-07T14:51:41.876Z,10.60
2023-01-07T15:01:54.519Z,11.20
2023-01-07T15:12:22.227Z,39.70
2023-01-07T15:22:37.515Z,30.40
2023-01-07T15:32:53.083Z,32.30
2023-01-07T15:42:58.674Z,23.10
2023-01-07T15:53:23.266Z,46.40
2023-01-07T16:03:26.947Z,31.80
2023-01-07T16:13:30.035Z,50.90
2023-01-07T16:23:34.660Z,80.70
2023-01-07T16:33:40.030Z,84.60
2023-01-07T16:43:44.603Z,58.00
2023-01-07T16:53:47.056Z,90.70
2023-01-07T17:03:55.604Z,78.50
2023-01-07T17:14:06.060Z,82.10
2023-01-07T17:24:31.330Z,102.60
2023-01-07T17:34:33.990Z,84.50
2023-01-07T17:44:36.509Z,122.90
2023-01-07T17:54:40.913Z,114.50
2023-01-07T18:04:43.473Z,108.60
2023-01-07T18:14:45.931Z,113.10
2023-01-07T18:24:48.901Z,127.50
2023-01-07T18:34:51.407Z,104.50
2023-01-07T18:44:54.024Z,92.00
2023-01-07T18:54:57.441Z,166.60
2023-01-07T19:05:00.005Z,152.70
2023-01-07T19:15:02.617Z,146.40
2023-01-07T19:25:05.891Z,133.50
2023-01-07T19:35:08.838Z,136.90
2023-01-07T19:45:11.467Z,154.00
2023-01-07T19:55:15.419Z,161.40
2023-01-07T20:05:18.228Z,145.70
2023-01-07T20:15:20.684Z,122.60
2023-01-07T20:25:23.163Z,87.20
2023-01-07T20:35:25.849Z,82.70
2023-01-07T20:45:28.476Z,73.70
2023-01-07T20:55:31.079Z,66.80
2023-01-07T21:05:34.362Z,64.20
2023-01-07T21:15:38.739Z,76.70
2023-01-07T21:25:45.747Z,65.20
2023-01-07T21:35:48.504Z,65.90
2023-01-07T21:45:51.401Z,83.80
2023-01-07T21:55:55.646Z,87.20
2023-01-07T22:06:00.931Z,100.20
2023-01-07T22:16:05.613Z,103.50
2023-01-07T22:26:09.089Z,91.30
2023-01-07T22:36:21.235Z,97.00
2023-01-07T22:46:27.695Z,66.90
2023-01-07T22:56:30.667Z,87.00
2023-01-07T23:06:33.459Z,82.80
2023-01-07T23:16:36.756Z,70.60
2023-01-07T23:26:40.079Z,68.70
2023-01-07T23:36:42.617Z,73.70
2023-01-07T23:46:45.523Z,48.00
2023-01-07T23:56:48.387Z,40.50
